ABOUT US
vACC Philippines is a recognized member of the VATSIM network. We are dedicated to enchancing the online experience of both local and international virtual pilots. Mandated to provide professional and realistic air traffic operations.

vACC Philippines aims to provide the most realistic air traffic system simulation service that is close to the real thing as possible when flying on the VATSIM network.


METARS

RPLL 201100Z 02004KT 330V060 9999 FEW022 BKN090 29/25 Q1012 NOSIG RMK A2988


RPVM 201100Z 33003KT 310V010 7000 SCT018CB OVC090 27/25 Q1011 RMK A2985 LTG NW-N CB NE/S/W-SW


RPMD 201100Z 27004KT 9999 FEW015CB BKN090 BKN290 25/25 Q1012 RMK A2988 CB/LTG FRQ SW-W



AIRFIELDS COVERED


Manila (RPLL)

Subic Bay (RPLB)

Mactan-Cebu (RPVM)

Clark (RPLC)

Laoag (RPLI)


Davao (RPMD)


Bacolod (RPVB)


Zamboanga (RPMZ)


General Santos (RPMR)


Iloilo (RPVI)


Kalibo (RPVK)


Legazpi (RPLP)


Puerto Princesa (RPVP)